sensor_id;sensor_type;location;lat;lon;timestamp;P1;durP1;ratioP1;P2;durP2;ratioP2
7729;SDS011;3908;52.310;7.230;2023-11-19T09:53:20;76.27;;;71.03;;
7729;SDS011;3908;52.310;7.230;2023-11-19T09:56:09;65.37;;;60.03;;
7729;SDS011;3908;52.310;7.230;2023-11-19T09:58:57;58.17;;;53.27;;
7729;SDS011;3908;52.310;7.230;2023-11-19T10:01:44;58.70;;;53.77;;
7729;SDS011;3908;52.310;7.230;2023-11-19T10:04:31;53.93;;;49.03;;
7729;SDS011;3908;52.310;7.230;2023-11-19T10:07:19;40.50;;;36.57;;
7729;SDS011;3908;52.310;7.230;2023-11-19T10:10:08;42.77;;;35.90;;
7729;SDS011;3908;52.310;7.230;2023-11-19T10:12:56;42.57;;;33.17;;
7729;SDS011;3908;52.310;7.230;2023-11-19T10:15:43;33.63;;;28.03;;
7729;SDS011;3908;52.310;7.230;2023-11-19T10:18:30;34.83;;;31.30;;
7729;SDS011;3908;52.310;7.230;2023-11-19T10:21:17;37.00;;;33.07;;
7729;SDS011;3908;52.310;7.230;2023-11-19T10:24:04;40.67;;;36.53;;
7729;SDS011;3908;52.310;7.230;2023-11-19T10:26:52;45.17;;;38.10;;
7729;SDS011;3908;52.310;7.230;2023-11-19T10:29:39;38.03;;;34.07;;
7729;SDS011;3908;52.310;7.230;2023-11-19T10:32:26;36.17;;;32.87;;
7729;SDS011;3908;52.310;7.230;2023-11-19T10:35:12;38.77;;;30.53;;
7729;SDS011;3908;52.310;7.230;2023-11-19T10:38:00;39.13;;;31.67;;
7729;SDS011;3908;52.310;7.230;2023-11-19T10:40:47;43.90;;;32.27;;
7729;SDS011;3908;52.310;7.230;2023-11-19T10:43:43;43.10;;;39.00;;
7729;SDS011;3908;52.310;7.230;2023-11-19T10:46:37;41.83;;;37.97;;
7729;SDS011;3908;52.310;7.230;2023-11-19T10:49:25;43.33;;;39.23;;
7729;SDS011;3908;52.310;7.230;2023-11-19T10:52:12;55.20;;;50.80;;
7729;SDS011;3908;52.310;7.230;2023-11-19T10:55:00;57.33;;;52.40;;
7729;SDS011;3908;52.310;7.230;2023-11-19T10:57:47;55.80;;;51.43;;
7729;SDS011;3908;52.310;7.230;2023-11-19T11:00:39;57.00;;;52.03;;
7729;SDS011;3908;52.310;7.230;2023-11-19T11:03:29;54.37;;;49.40;;
7729;SDS011;3908;52.310;7.230;2023-11-19T11:06:18;53.73;;;50.20;;
7729;SDS011;3908;52.310;7.230;2023-11-19T11:09:05;57.70;;;52.50;;
7729;SDS011;3908;52.310;7.230;2023-11-19T11:11:57;50.00;;;45.33;;
7729;SDS011;3908;52.310;7.230;2023-11-19T11:14:45;45.53;;;41.13;;
7729;SDS011;3908;52.310;7.230;2023-11-19T11:17:34;44.97;;;40.27;;
7729;SDS011;3908;52.310;7.230;2023-11-19T11:20:21;32.87;;;29.93;;
7729;SDS011;3908;52.310;7.230;2023-11-19T11:26:15;35.23;;;20.30;;
7729;SDS011;3908;52.310;7.230;2023-11-19T11:29:05;31.23;;;21.50;;
7729;SDS011;3908;52.310;7.230;2023-11-19T11:31:57;27.27;;;22.80;;
7729;SDS011;3908;52.310;7.230;2023-11-19T11:34:53;34.57;;;25.30;;
7729;SDS011;3908;52.310;7.230;2023-11-19T11:37:44;31.73;;;28.50;;
7729;SDS011;3908;52.310;7.230;2023-11-19T11:40:32;35.37;;;25.40;;
7729;SDS011;3908;52.310;7.230;2023-11-19T11:43:43;28.00;;;22.90;;
7729;SDS011;3908;52.310;7.230;2023-11-19T11:49:38;31.57;;;28.50;;
7729;SDS011;3908;52.310;7.230;2023-11-19T11:52:27;42.23;;;38.03;;
7729;SDS011;3908;52.310;7.230;2023-11-19T11:55:18;48.80;;;44.30;;
7729;SDS011;3908;52.310;7.230;2023-11-19T11:58:05;51.57;;;47.00;;
7729;SDS011;3908;52.310;7.230;2023-11-19T12:00:52;53.03;;;47.97;;
7729;SDS011;3908;52.310;7.230;2023-11-19T12:03:40;52.37;;;48.47;;
7729;SDS011;3908;52.310;7.230;2023-11-19T12:06:27;70.27;;;64.23;;
7729;SDS011;3908;52.310;7.230;2023-11-19T12:09:18;69.93;;;64.77;;
7729;SDS011;3908;52.310;7.230;2023-11-19T12:12:13;59.53;;;54.73;;
7729;SDS011;3908;52.310;7.230;2023-11-19T12:15:14;49.23;;;45.20;;
7729;SDS011;3908;52.310;7.230;2023-11-19T12:18:01;48.13;;;43.80;;
7729;SDS011;3908;52.310;7.230;2023-11-19T12:20:48;66.73;;;61.53;;
7729;SDS011;3908;52.310;7.230;2023-11-19T12:23:35;74.77;;;68.77;;
7729;SDS011;3908;52.310;7.230;2023-11-19T12:26:33;78.03;;;72.80;;
7729;SDS011;3908;52.310;7.230;2023-11-19T12:29:23;71.40;;;66.67;;
7729;SDS011;3908;52.310;7.230;2023-11-19T12:32:10;73.77;;;68.20;;
7729;SDS011;3908;52.310;7.230;2023-11-19T12:34:57;74.27;;;68.70;;
7729;SDS011;3908;52.310;7.230;2023-11-19T12:37:44;74.67;;;69.07;;
7729;SDS011;3908;52.310;7.230;2023-11-19T12:40:32;56.33;;;52.40;;
7729;SDS011;3908;52.310;7.230;2023-11-19T12:43:23;35.20;;;31.33;;
7729;SDS011;3908;52.310;7.230;2023-11-19T12:46:17;32.53;;;22.60;;
7729;SDS011;3908;52.310;7.230;2023-11-19T12:49:07;35.03;;;31.63;;
7729;SDS011;3908;52.310;7.230;2023-11-19T12:51:57;50.73;;;46.33;;
7729;SDS011;3908;52.310;7.230;2023-11-19T12:54:50;47.70;;;43.30;;
7729;SDS011;3908;52.310;7.230;2023-11-19T12:57:38;43.57;;;40.10;;
7729;SDS011;3908;52.310;7.230;2023-11-19T13:00:26;44.60;;;41.27;;
7729;SDS011;3908;52.310;7.230;2023-11-19T13:03:22;40.03;;;36.47;;
7729;SDS011;3908;52.310;7.230;2023-11-19T13:06:15;50.83;;;46.93;;
7729;SDS011;3908;52.310;7.230;2023-11-19T13:09:02;71.60;;;66.17;;
7729;SDS011;3908;52.310;7.230;2023-11-19T13:11:50;79.20;;;74.43;;
7729;SDS011;3908;52.310;7.230;2023-11-19T13:14:40;69.63;;;64.93;;
7729;SDS011;3908;52.310;7.230;2023-11-19T13:17:29;67.10;;;62.53;;
7729;SDS011;3908;52.310;7.230;2023-11-19T13:20:15;82.47;;;76.73;;
7729;SDS011;3908;52.310;7.230;2023-11-19T13:23:06;100.20;;;94.13;;
7729;SDS011;3908;52.310;7.230;2023-11-19T13:25:53;96.60;;;90.60;;
7729;SDS011;3908;52.310;7.230;2023-11-19T13:28:40;99.53;;;93.33;;
7729;SDS011;3908;52.310;7.230;2023-11-19T13:31:27;92.03;;;85.80;;
7729;SDS011;3908;52.310;7.230;2023-11-19T13:34:19;80.17;;;74.90;;
7729;SDS011;3908;52.310;7.230;2023-11-19T13:37:07;62.97;;;58.47;;
7729;SDS011;3908;52.310;7.230;2023-11-19T13:39:57;61.07;;;57.23;;
7729;SDS011;3908;52.310;7.230;2023-11-19T13:42:44;56.83;;;51.90;;
7729;SDS011;3908;52.310;7.230;2023-11-19T13:45:30;50.23;;;46.47;;
7729;SDS011;3908;52.310;7.230;2023-11-19T13:48:17;50.17;;;45.87;;
7729;SDS011;3908;52.310;7.230;2023-11-19T13:51:06;47.87;;;43.13;;
7729;SDS011;3908;52.310;7.230;2023-11-19T13:53:55;44.37;;;40.13;;
7729;SDS011;3908;52.310;7.230;2023-11-19T13:56:42;48.37;;;44.40;;
7729;SDS011;3908;52.310;7.230;2023-11-19T13:59:39;52.33;;;48.70;;
7729;SDS011;3908;52.310;7.230;2023-11-19T14:02:26;51.27;;;47.30;;
7729;SDS011;3908;52.310;7.230;2023-11-19T14:05:16;50.63;;;46.70;;
7729;SDS011;3908;52.310;7.230;2023-11-19T14:08:08;50.13;;;46.57;;
7729;SDS011;3908;52.310;7.230;2023-11-19T14:10:56;53.40;;;49.43;;
7729;SDS011;3908;52.310;7.230;2023-11-19T14:13:43;57.90;;;53.70;;
7729;SDS011;3908;52.310;7.230;2023-11-19T14:16:32;68.53;;;64.03;;
7729;SDS011;3908;52.310;7.230;2023-11-19T14:19:22;70.83;;;65.83;;
7729;SDS011;3908;52.310;7.230;2023-11-19T14:22:09;71.17;;;66.20;;
7729;SDS011;3908;52.310;7.230;2023-11-19T14:24:58;65.33;;;61.20;;
7729;SDS011;3908;52.310;7.230;2023-11-19T14:27:45;61.43;;;57.07;;
7729;SDS011;3908;52.310;7.230;2023-11-19T14:30:33;53.03;;;48.83;;
7729;SDS011;3908;52.310;7.230;2023-11-19T14:33:20;50.10;;;46.47;;
7729;SDS011;3908;52.310;7.230;2023-11-19T14:36:07;49.57;;;46.07;;
7729;SDS011;3908;52.310;7.230;2023-11-19T14:38:54;59.37;;;54.97;;
7729;SDS011;3908;52.310;7.230;2023-11-19T14:41:43;58.70;;;54.17;;
7729;SDS011;3908;52.310;7.230;2023-11-19T14:44:30;69.87;;;65.50;;
7729;SDS011;3908;52.310;7.230;2023-11-19T14:47:17;65.37;;;62.00;;
7729;SDS011;3908;52.310;7.230;2023-11-19T14:50:04;69.57;;;65.33;;
7729;SDS011;3908;52.310;7.230;2023-11-19T14:52:52;72.70;;;68.43;;
7729;SDS011;3908;52.310;7.230;2023-11-19T14:55:38;63.57;;;59.57;;
7729;SDS011;3908;52.310;7.230;2023-11-19T14:58:27;65.60;;;61.33;;
7729;SDS011;3908;52.310;7.230;2023-11-19T15:01:13;64.83;;;60.20;;
7729;SDS011;3908;52.310;7.230;2023-11-19T15:04:00;63.23;;;59.53;;
7729;SDS011;3908;52.310;7.230;2023-11-19T15:06:47;65.97;;;61.37;;
7729;SDS011;3908;52.310;7.230;2023-11-19T15:09:34;58.63;;;54.23;;
7729;SDS011;3908;52.310;7.230;2023-11-19T15:12:21;47.67;;;44.50;;
7729;SDS011;3908;52.310;7.230;2023-11-19T15:15:10;34.93;;;32.13;;
7729;SDS011;3908;52.310;7.230;2023-11-19T15:17:59;37.67;;;34.53;;
7729;SDS011;3908;52.310;7.230;2023-11-19T15:20:45;29.17;;;26.37;;
7729;SDS011;3908;52.310;7.230;2023-11-19T15:23:36;24.43;;;22.43;;
7729;SDS011;3908;52.310;7.230;2023-11-19T15:26:23;23.40;;;21.00;;
7729;SDS011;3908;52.310;7.230;2023-11-19T15:29:14;20.40;;;18.50;;
7729;SDS011;3908;52.310;7.230;2023-11-19T15:32:02;20.87;;;18.83;;
7729;SDS011;3908;52.310;7.230;2023-11-19T15:34:49;21.27;;;19.00;;
7729;SDS011;3908;52.310;7.230;2023-11-19T15:37:36;18.03;;;16.23;;
7729;SDS011;3908;52.310;7.230;2023-11-19T15:40:25;21.17;;;11.80;;
7729;SDS011;3908;52.310;7.230;2023-11-19T15:43:14;15.70;;;13.57;;
7729;SDS011;3908;52.310;7.230;2023-11-19T15:46:05;16.13;;;14.60;;
7729;SDS011;3908;52.310;7.230;2023-11-19T15:48:53;21.50;;;19.57;;
7729;SDS011;3908;52.310;7.230;2023-11-19T15:51:40;26.70;;;24.77;;
7729;SDS011;3908;52.310;7.230;2023-11-19T15:54:27;28.43;;;25.70;;
7729;SDS011;3908;52.310;7.230;2023-11-19T15:57:14;31.47;;;29.00;;
7729;SDS011;3908;52.310;7.230;2023-11-19T16:00:02;33.70;;;31.13;;
7729;SDS011;3908;52.310;7.230;2023-11-19T16:02:50;27.90;;;25.47;;
7729;SDS011;3908;52.310;7.230;2023-11-19T16:05:38;27.37;;;25.33;;
7729;SDS011;3908;52.310;7.230;2023-11-19T16:08:25;28.43;;;26.00;;
7729;SDS011;3908;52.310;7.230;2023-11-19T16:11:13;32.93;;;30.40;;
7729;SDS011;3908;52.310;7.230;2023-11-19T16:13:59;32.50;;;29.53;;
7729;SDS011;3908;52.310;7.230;2023-11-19T16:16:46;37.03;;;34.17;;
7729;SDS011;3908;52.310;7.230;2023-11-19T16:19:33;35.30;;;32.30;;
7729;SDS011;3908;52.310;7.230;2023-11-19T16:22:23;34.77;;;31.27;;
7729;SDS011;3908;52.310;7.230;2023-11-19T16:25:10;32.60;;;29.77;;
7729;SDS011;3908;52.310;7.230;2023-11-19T16:28:09;30.73;;;27.47;;
7729;SDS011;3908;52.310;7.230;2023-11-19T16:30:56;31.10;;;28.10;;
7729;SDS011;3908;52.310;7.230;2023-11-19T16:33:43;31.00;;;27.87;;
7729;SDS011;3908;52.310;7.230;2023-11-19T16:36:31;30.23;;;28.03;;
7729;SDS011;3908;52.310;7.230;2023-11-19T16:39:20;31.83;;;28.93;;
7729;SDS011;3908;52.310;7.230;2023-11-19T16:42:07;28.53;;;25.97;;
7729;SDS011;3908;52.310;7.230;2023-11-19T16:44:54;27.50;;;24.97;;
7729;SDS011;3908;52.310;7.230;2023-11-19T16:47:42;25.73;;;23.27;;
7729;SDS011;3908;52.310;7.230;2023-11-19T16:50:30;27.10;;;24.73;;
7729;SDS011;3908;52.310;7.230;2023-11-19T16:53:21;27.40;;;25.17;;
7729;SDS011;3908;52.310;7.230;2023-11-19T16:56:13;29.87;;;27.23;;
7729;SDS011;3908;52.310;7.230;2023-11-19T16:59:06;27.03;;;24.73;;
7729;SDS011;3908;52.310;7.230;2023-11-19T17:01:54;29.13;;;26.07;;
7729;SDS011;3908;52.310;7.230;2023-11-19T17:04:41;30.43;;;27.53;;
7729;SDS011;3908;52.310;7.230;2023-11-19T17:07:29;29.57;;;27.43;;
7729;SDS011;3908;52.310;7.230;2023-11-19T17:10:19;29.97;;;27.87;;
7729;SDS011;3908;52.310;7.230;2023-11-19T17:13:08;31.80;;;28.87;;
7729;SDS011;3908;52.310;7.230;2023-11-19T17:15:56;29.53;;;26.70;;
7729;SDS011;3908;52.310;7.230;2023-11-19T17:18:43;37.37;;;34.60;;
7729;SDS011;3908;52.310;7.230;2023-11-19T17:21:31;39.17;;;36.27;;
7729;SDS011;3908;52.310;7.230;2023-11-19T17:24:18;40.27;;;37.47;;
7729;SDS011;3908;52.310;7.230;2023-11-19T17:27:05;40.03;;;36.93;;
7729;SDS011;3908;52.310;7.230;2023-11-19T17:29:53;56.47;;;52.83;;
7729;SDS011;3908;52.310;7.230;2023-11-19T17:32:40;54.63;;;50.43;;
7729;SDS011;3908;52.310;7.230;2023-11-19T17:35:27;53.77;;;50.07;;
7729;SDS011;3908;52.310;7.230;2023-11-19T17:38:16;50.43;;;46.93;;
7729;SDS011;3908;52.310;7.230;2023-11-19T17:41:04;52.07;;;48.00;;
7729;SDS011;3908;52.310;7.230;2023-11-19T17:43:51;48.33;;;44.40;;
7729;SDS011;3908;52.310;7.230;2023-11-19T17:46:39;50.80;;;47.43;;
7729;SDS011;3908;52.310;7.230;2023-11-19T17:49:26;49.27;;;46.20;;
7729;SDS011;3908;52.310;7.230;2023-11-19T17:52:13;46.77;;;43.60;;
7729;SDS011;3908;52.310;7.230;2023-11-19T17:55:00;51.20;;;47.60;;
7729;SDS011;3908;52.310;7.230;2023-11-19T17:57:55;47.97;;;44.57;;
7729;SDS011;3908;52.310;7.230;2023-11-19T18:00:43;48.37;;;45.43;;
7729;SDS011;3908;52.310;7.230;2023-11-19T18:03:32;50.77;;;46.30;;
7729;SDS011;3908;52.310;7.230;2023-11-19T18:06:19;42.03;;;38.83;;
7729;SDS011;3908;52.310;7.230;2023-11-19T18:09:06;38.80;;;36.23;;
7729;SDS011;3908;52.310;7.230;2023-11-19T18:11:53;40.23;;;37.23;;
7729;SDS011;3908;52.310;7.230;2023-11-19T18:14:40;39.67;;;36.60;;
7729;SDS011;3908;52.310;7.230;2023-11-19T18:17:26;40.97;;;37.13;;
7729;SDS011;3908;52.310;7.230;2023-11-19T18:20:20;39.30;;;36.43;;
7729;SDS011;3908;52.310;7.230;2023-11-19T18:23:08;42.10;;;38.40;;
7729;SDS011;3908;52.310;7.230;2023-11-19T18:25:55;37.83;;;34.40;;
7729;SDS011;3908;52.310;7.230;2023-11-19T18:28:42;36.57;;;34.27;;
7729;SDS011;3908;52.310;7.230;2023-11-19T18:31:29;38.50;;;35.73;;
7729;SDS011;3908;52.310;7.230;2023-11-19T18:34:21;34.93;;;32.43;;
7729;SDS011;3908;52.310;7.230;2023-11-19T18:37:09;40.23;;;37.20;;
7729;SDS011;3908;52.310;7.230;2023-11-19T18:40:01;41.27;;;38.67;;
7729;SDS011;3908;52.310;7.230;2023-11-19T18:42:48;38.53;;;35.63;;
7729;SDS011;3908;52.310;7.230;2023-11-19T18:45:35;41.47;;;38.57;;
7729;SDS011;3908;52.310;7.230;2023-11-19T18:48:23;37.73;;;35.23;;
7729;SDS011;3908;52.310;7.230;2023-11-19T18:51:10;38.50;;;35.80;;
7729;SDS011;3908;52.310;7.230;2023-11-19T18:54:01;35.73;;;33.63;;
7729;SDS011;3908;52.310;7.230;2023-11-19T18:56:48;40.20;;;37.47;;
7729;SDS011;3908;52.310;7.230;2023-11-19T18:59:37;39.50;;;36.87;;
7729;SDS011;3908;52.310;7.230;2023-11-19T19:02:24;40.47;;;37.67;;
7729;SDS011;3908;52.310;7.230;2023-11-19T19:05:11;36.73;;;34.30;;
7729;SDS011;3908;52.310;7.230;2023-11-19T19:08:01;42.20;;;38.97;;
7729;SDS011;3908;52.310;7.230;2023-11-19T19:10:50;37.13;;;34.57;;
7729;SDS011;3908;52.310;7.230;2023-11-19T19:17:00;33.57;;;31.13;;
7729;SDS011;3908;52.310;7.230;2023-11-19T19:19:52;27.97;;;26.13;;
7729;SDS011;3908;52.310;7.230;2023-11-19T19:22:39;30.40;;;28.33;;
7729;SDS011;3908;52.310;7.230;2023-11-19T19:25:29;31.30;;;29.17;;
7729;SDS011;3908;52.310;7.230;2023-11-19T19:28:17;29.23;;;27.33;;
7729;SDS011;3908;52.310;7.230;2023-11-19T19:31:04;32.07;;;30.37;;
7729;SDS011;3908;52.310;7.230;2023-11-19T19:33:51;33.83;;;31.70;;
7729;SDS011;3908;52.310;7.230;2023-11-19T19:36:43;33.37;;;31.40;;
7729;SDS011;3908;52.310;7.230;2023-11-19T19:39:29;30.17;;;28.23;;
7729;SDS011;3908;52.310;7.230;2023-11-19T19:42:17;32.90;;;30.63;;
7729;SDS011;3908;52.310;7.230;2023-11-19T19:45:06;28.70;;;27.23;;
7729;SDS011;3908;52.310;7.230;2023-11-19T19:47:54;33.17;;;31.03;;
7729;SDS011;3908;52.310;7.230;2023-11-19T19:50:42;29.43;;;27.57;;
7729;SDS011;3908;52.310;7.230;2023-11-19T19:53:28;32.50;;;30.37;;
7729;SDS011;3908;52.310;7.230;2023-11-19T19:56:15;31.23;;;29.47;;
7729;SDS011;3908;52.310;7.230;2023-11-19T19:59:02;30.53;;;28.47;;
7729;SDS011;3908;52.310;7.230;2023-11-19T20:01:50;31.77;;;29.70;;
7729;SDS011;3908;52.310;7.230;2023-11-19T20:04:37;29.03;;;27.50;;
7729;SDS011;3908;52.310;7.230;2023-11-19T20:07:24;29.13;;;27.20;;
7729;SDS011;3908;52.310;7.230;2023-11-19T20:10:15;27.10;;;25.20;;
7729;SDS011;3908;52.310;7.230;2023-11-19T20:13:05;29.23;;;27.63;;
7729;SDS011;3908;52.310;7.230;2023-11-19T20:15:54;27.23;;;25.87;;
7729;SDS011;3908;52.310;7.230;2023-11-19T20:18:42;29.20;;;27.80;;
7729;SDS011;3908;52.310;7.230;2023-11-19T20:21:29;26.10;;;24.53;;
7729;SDS011;3908;52.310;7.230;2023-11-19T20:24:17;25.37;;;23.97;;
7729;SDS011;3908;52.310;7.230;2023-11-19T20:27:04;26.40;;;25.03;;
7729;SDS011;3908;52.310;7.230;2023-11-19T20:29:51;25.17;;;23.90;;
7729;SDS011;3908;52.310;7.230;2023-11-19T20:32:38;21.10;;;20.00;;
7729;SDS011;3908;52.310;7.230;2023-11-19T20:35:27;23.77;;;22.67;;
7729;SDS011;3908;52.310;7.230;2023-11-19T20:38:14;25.27;;;23.80;;
7729;SDS011;3908;52.310;7.230;2023-11-19T20:41:01;20.17;;;19.17;;
7729;SDS011;3908;52.310;7.230;2023-11-19T20:43:48;22.13;;;20.97;;
7729;SDS011;3908;52.310;7.230;2023-11-19T20:46:35;20.93;;;19.57;;
7729;SDS011;3908;52.310;7.230;2023-11-19T20:49:22;19.07;;;18.07;;
7729;SDS011;3908;52.310;7.230;2023-11-19T20:52:10;20.20;;;19.00;;
7729;SDS011;3908;52.310;7.230;2023-11-19T20:54:57;23.30;;;22.20;;
7729;SDS011;3908;52.310;7.230;2023-11-19T20:57:43;18.77;;;17.77;;
7729;SDS011;3908;52.310;7.230;2023-11-19T21:00:30;22.57;;;21.27;;
7729;SDS011;3908;52.310;7.230;2023-11-19T21:03:17;28.83;;;27.30;;
7729;SDS011;3908;52.310;7.230;2023-11-19T21:06:04;24.07;;;22.87;;
7729;SDS011;3908;52.310;7.230;2023-11-19T21:08:52;22.53;;;21.30;;
7729;SDS011;3908;52.310;7.230;2023-11-19T21:11:39;25.37;;;24.20;;
7729;SDS011;3908;52.310;7.230;2023-11-19T21:14:26;23.10;;;22.00;;
7729;SDS011;3908;52.310;7.230;2023-11-19T21:17:13;23.83;;;22.60;;
7729;SDS011;3908;52.310;7.230;2023-11-19T21:20:07;28.27;;;26.80;;
7729;SDS011;3908;52.310;7.230;2023-11-19T21:26:03;25.60;;;24.07;;
7729;SDS011;3908;52.310;7.230;2023-11-19T21:28:50;21.77;;;20.63;;
7729;SDS011;3908;52.310;7.230;2023-11-19T21:31:37;21.80;;;20.60;;
7729;SDS011;3908;52.310;7.230;2023-11-19T21:34:24;23.73;;;22.53;;
7729;SDS011;3908;52.310;7.230;2023-11-19T21:37:11;22.57;;;21.47;;
7729;SDS011;3908;52.310;7.230;2023-11-19T21:39:58;25.87;;;24.67;;
7729;SDS011;3908;52.310;7.230;2023-11-19T21:42:46;24.60;;;23.43;;
7729;SDS011;3908;52.310;7.230;2023-11-19T21:45:33;26.00;;;24.63;;
7729;SDS011;3908;52.310;7.230;2023-11-19T21:48:21;25.97;;;24.67;;
7729;SDS011;3908;52.310;7.230;2023-11-19T21:51:08;22.90;;;21.87;;
7729;SDS011;3908;52.310;7.230;2023-11-19T21:53:55;23.90;;;22.60;;
7729;SDS011;3908;52.310;7.230;2023-11-19T21:56:41;21.80;;;20.70;;
7729;SDS011;3908;52.310;7.230;2023-11-19T21:59:30;22.40;;;21.13;;
7729;SDS011;3908;52.310;7.230;2023-11-19T22:02:17;21.43;;;20.23;;
7729;SDS011;3908;52.310;7.230;2023-11-19T22:05:04;18.07;;;17.10;;
7729;SDS011;3908;52.310;7.230;2023-11-19T22:07:50;19.73;;;18.67;;
7729;SDS011;3908;52.310;7.230;2023-11-19T22:10:38;19.17;;;18.17;;
7729;SDS011;3908;52.310;7.230;2023-11-19T22:13:34;17.30;;;16.20;;
7729;SDS011;3908;52.310;7.230;2023-11-19T22:16:24;17.97;;;17.00;;
7729;SDS011;3908;52.310;7.230;2023-11-19T22:19:14;17.60;;;16.57;;
7729;SDS011;3908;52.310;7.230;2023-11-19T22:22:01;16.97;;;15.87;;
7729;SDS011;3908;52.310;7.230;2023-11-19T22:24:48;16.97;;;16.03;;
7729;SDS011;3908;52.310;7.230;2023-11-19T22:27:35;14.57;;;13.67;;
7729;SDS011;3908;52.310;7.230;2023-11-19T22:30:21;14.53;;;13.60;;
7729;SDS011;3908;52.310;7.230;2023-11-19T22:33:13;15.03;;;14.17;;
7729;SDS011;3908;52.310;7.230;2023-11-19T22:36:00;14.30;;;13.33;;
